Time;durP1;ratioP1;P1;durP2;ratioP2;P2;SDS_P1;SDS_P2;PMS_P1;PMS_P2;Temp;Humidity;BMP_temperature;BMP_pressure;BME280_temperature;BME280_humidity;BME280_pressure;Samples;Min_cycle;Max_cycle;Signal;HPM_P1;HPM_P2
2023/08/11 00:01:51;;;;;;;4.82;3.58;;;18.40;99.90;;;;;;4992821;28;20589;-78
2023/08/11 00:04:36;;;;;;;9.75;3.88;;;18.40;99.90;;;;;;4989820;28;20277;-79
2023/08/11 00:07:23;;;;;;;7.40;4.45;;;18.30;99.90;;;;;;4995582;28;20184;-77
2023/08/11 00:10:08;;;;;;;6.97;4.15;;;18.30;99.90;;;;;;4991156;28;20220;-78
2023/08/11 00:12:55;;;;;;;6.38;4.07;;;18.30;99.90;;;;;;4993174;28;20264;-80
2023/08/11 00:15:40;;;;;;;7.05;4.20;;;18.30;99.90;;;;;;5004989;28;20303;-76
2023/08/11 00:18:24;;;;;;;4.63;3.80;;;18.30;99.90;;;;;;4991443;28;20232;-77
2023/08/11 00:21:09;;;;;;;8.07;4.60;;;18.30;99.90;;;;;;4988361;28;20240;-77
2023/08/11 00:23:53;;;;;;;7.18;4.93;;;18.30;99.90;;;;;;4997434;28;20256;-78
2023/08/11 00:26:38;;;;;;;7.63;4.70;;;;;;;;;;4992925;28;20193;-78
2023/08/11 00:29:22;;;;;;;7.30;4.35;;;;;;;;;;4984899;28;20216;-79
2023/08/11 00:32:10;;;;;;;5.28;4.13;;;;;;;;;;4992401;28;20204;-77
2023/08/11 00:34:55;;;;;;;8.07;4.50;;;;;;;;;;4990216;28;20764;-78
2023/08/11 00:37:39;;;;;;;7.22;4.75;;;;;;;;;;4985675;28;20221;-76
2023/08/11 00:40:24;;;;;;;8.65;5.20;;;;;;;;;;4996869;28;20240;-78
2023/08/11 00:43:09;;;;;;;10.73;4.95;;;;;;;;;;4992576;28;20200;-77
2023/08/11 00:45:53;;;;;;;8.35;4.90;;;18.30;99.90;;;;;;4989856;28;20194;-78
2023/08/11 00:48:41;;;;;;;6.90;4.38;;;18.30;99.90;;;;;;4990805;28;20556;-76
2023/08/11 00:51:29;;;;;;;5.70;4.95;;;18.20;99.90;;;;;;4990441;28;20235;-77
2023/08/11 00:54:15;;;;;;;7.32;5.32;;;18.20;99.90;;;;;;4991380;28;20239;-78
2023/08/11 00:57:00;;;;;;;9.27;4.90;;;18.20;99.90;;;;;;4993323;28;20228;-78
2023/08/11 00:59:48;;;;;;;9.48;4.90;;;18.20;99.90;;;;;;4998235;28;20228;-77
2023/08/11 01:02:36;;;;;;;9.02;5.22;;;;;;;;;;4990357;28;20272;-78
2023/08/11 01:05:21;;;;;;;10.63;5.00;;;;;;;;;;4990932;28;20240;-78
2023/08/11 01:08:12;;;;;;;8.60;5.28;;;;;;;;;;4993486;28;20208;-77
2023/08/11 01:11:07;;;;;;;6.90;5.78;;;;;;;;;;4989559;28;20232;-75
2023/08/11 01:13:54;;;;;;;8.13;6.00;;;;;;;;;;4993547;28;20185;-78
2023/08/11 01:16:39;;;;;;;9.13;5.40;;;;;;;;;;4988311;28;20192;-78
2023/08/11 01:19:28;;;;;;;6.43;5.65;;;;;;;;;;5001758;23;20250;-78
2023/08/11 01:22:23;;;;;;;6.57;5.22;;;;;;;;;;4967888;28;20209;-78
2023/08/11 01:25:09;;;;;;;10.32;6.00;;;;;;;;;;4975611;28;20190;-77
2023/08/11 01:27:56;;;;;;;9.68;5.32;;;;;;;;;;4966941;28;20182;-78
2023/08/11 01:30:42;;;;;;;8.57;5.90;;;;;;;;;;4952519;28;20221;-77
2023/08/11 01:33:28;;;;;;;9.68;6.30;;;;;;;;;;4951569;28;20186;-77
2023/08/11 01:36:14;;;;;;;13.07;6.07;;;;;;;;;;4948415;28;20193;-77
2023/08/11 01:39:04;;;;;;;6.18;5.53;;;;;;;;;;4941769;28;20197;-74
2023/08/11 01:41:49;;;;;;;7.72;6.03;;;;;;;;;;4938223;28;20223;-75
2023/08/11 01:44:35;;;;;;;10.20;5.95;;;;;;;;;;4955101;28;20191;-73
2023/08/11 01:47:22;;;;;;;7.13;6.05;;;;;;;;;;4946224;28;20190;-75
2023/08/11 01:50:10;;;;;;;8.18;6.07;;;;;;;;;;4946321;28;20217;-76
2023/08/11 01:52:58;;;;;;;9.80;5.93;;;;;;;;;;4958695;28;20214;-76
2023/08/11 01:55:44;;;;;;;6.20;5.57;;;;;;;;;;4960811;28;20203;-77
2023/08/11 01:58:29;;;;;;;11.55;6.40;;;;;;;;;;4962671;28;20255;-75
2023/08/11 02:01:14;;;;;;;13.85;5.97;;;;;;;;;;4955107;28;20282;-75
2023/08/11 02:03:58;;;;;;;10.68;6.88;;;;;;;;;;4957545;28;20190;-75
2023/08/11 02:06:45;;;;;;;10.13;6.53;;;;;;;;;;4942924;28;20320;-75
2023/08/11 02:09:31;;;;;;;11.02;6.95;;;;;;;;;;4952345;28;20270;-76
2023/08/11 02:12:17;;;;;;;12.50;6.80;;;;;;;;;;4944342;28;20190;-75
2023/08/11 02:15:05;;;;;;;7.88;5.82;;;;;;;;;;4963638;28;20191;-74
2023/08/11 02:17:50;;;;;;;9.48;7.22;;;;;;;;;;4958954;28;20186;-76
2023/08/11 02:20:36;;;;;;;13.35;6.85;;;;;;;;;;4955004;28;20273;-75
2023/08/11 02:23:21;;;;;;;12.18;6.68;;;;;;;;;;4946841;28;20182;-76
2023/08/11 02:26:07;;;;;;;12.75;7.00;;;;;;;;;;4965926;28;20690;-74
2023/08/11 02:28:52;;;;;;;7.00;6.20;;;;;;;;;;4957651;28;20190;-76
2023/08/11 02:31:37;;;;;;;10.48;6.47;;;;;;;;;;4945840;28;20186;-76
2023/08/11 02:34:24;;;;;;;9.98;6.50;;;;;;;;;;4950198;28;20199;-77
2023/08/11 02:37:08;;;;;;;8.55;7.15;;;;;;;;;;4956903;28;20265;-76
2023/08/11 02:39:53;;;;;;;9.60;6.50;;;;;;;;;;4964114;28;20298;-75
2023/08/11 02:42:38;;;;;;;8.35;6.30;;;;;;;;;;4940959;28;20186;-77
2023/08/11 02:45:23;;;;;;;11.02;7.15;;;18.10;99.90;;;;;;4953380;28;20266;-77
2023/08/11 02:48:08;;;;;;;8.57;6.95;;;;;;;;;;4962280;28;20190;-77
2023/08/11 02:50:53;;;;;;;10.18;6.57;;;18.00;99.90;;;;;;4963786;28;20234;-77
2023/08/11 02:53:39;;;;;;;7.63;6.68;;;;;;;;;;4949562;28;20195;-77
2023/08/11 02:56:25;;;;;;;8.30;6.70;;;;;;;;;;4953587;28;20198;-76
2023/08/11 02:59:10;;;;;;;10.40;6.07;;;;;;;;;;4945842;28;20299;-77
2023/08/11 03:01:54;;;;;;;10.18;6.70;;;;;;;;;;4945162;28;20343;-76
2023/08/11 03:04:39;;;;;;;9.25;6.55;;;;;;;;;;4948296;28;20257;-75
2023/08/11 03:07:24;;;;;;;6.93;6.23;;;;;;;;;;4965119;28;20234;-76
2023/08/11 03:10:09;;;;;;;9.07;6.70;;;;;;;;;;4951444;28;20289;-77
2023/08/11 03:12:54;;;;;;;8.90;7.00;;;;;;;;;;4957086;28;20187;-77
2023/08/11 03:15:38;;;;;;;9.65;7.15;;;;;;;;;;4961150;28;20185;-76
2023/08/11 03:18:23;;;;;;;9.27;6.93;;;;;;;;;;4964617;28;20198;-77
2023/08/11 03:21:07;;;;;;;8.27;7.47;;;;;;;;;;4948859;28;20225;-78
2023/08/11 03:23:52;;;;;;;7.28;6.13;;;;;;;;;;4952334;28;20231;-76
2023/08/11 03:26:37;;;;;;;6.97;6.20;;;;;;;;;;4940222;28;20219;-74
2023/08/11 03:29:22;;;;;;;9.45;6.68;;;;;;;;;;4943313;28;20205;-74
2023/08/11 03:32:06;;;;;;;9.45;6.88;;;;;;;;;;4951237;28;20202;-74
2023/08/11 03:34:51;;;;;;;9.48;6.40;;;;;;;;;;4941947;28;20266;-74
2023/08/11 03:37:36;;;;;;;9.57;6.35;;;;;;;;;;4940366;28;20187;-75
2023/08/11 03:40:21;;;;;;;12.63;5.82;;;;;;;;;;4953434;28;20680;-75
2023/08/11 03:43:07;;;;;;;8.45;6.38;;;;;;;;;;4950701;28;20222;-75
2023/08/11 03:45:53;;;;;;;12.57;6.25;;;;;;;;;;4943623;28;20182;-74
2023/08/11 03:48:38;;;;;;;9.98;5.82;;;;;;;;;;4947847;28;20190;-74
2023/08/11 03:51:27;;;;;;;6.63;5.97;;;;;;;;;;4949391;28;20198;-75
2023/08/11 03:54:12;;;;;;;6.43;5.75;;;;;;;;;;4963188;28;20330;-74
2023/08/11 03:56:58;;;;;;;7.85;6.07;;;;;;;;;;4963140;28;20201;-74
2023/08/11 03:59:43;;;;;;;6.85;6.20;;;;;;;;;;4966513;28;20216;-74
2023/08/11 04:02:29;;;;;;;8.20;5.70;;;;;;;;;;4963057;28;20258;-75
2023/08/11 04:05:16;;;;;;;10.50;6.80;;;;;;;;;;4955541;28;20195;-74
2023/08/11 04:08:04;;;;;;;9.32;6.28;;;;;;;;;;4963626;28;20197;-75
2023/08/11 04:10:49;;;;;;;8.30;5.97;;;;;;;;;;4940128;28;20263;-75
2023/08/11 04:13:33;;;;;;;8.30;5.95;;;;;;;;;;4959602;28;20195;-74
2023/08/11 04:16:18;;;;;;;8.23;6.28;;;;;;;;;;4966529;28;20198;-73
2023/08/11 04:19:02;;;;;;;6.33;5.67;;;;;;;;;;4956963;28;20277;-73
2023/08/11 04:21:47;;;;;;;8.47;6.50;;;;;;;;;;4943916;28;20298;-75
2023/08/11 04:24:32;;;;;;;11.07;7.23;;;;;;;;;;4948043;28;20194;-75
2023/08/11 04:27:17;;;;;;;9.17;7.23;;;;;;;;;;4945175;28;20254;-75
2023/08/11 04:30:02;;;;;;;9.70;7.57;;;;;;;;;;4964718;28;20233;-74
2023/08/11 04:32:47;;;;;;;9.77;7.23;;;;;;;;;;4963782;28;20190;-74
2023/08/11 04:35:33;;;;;;;11.10;6.97;;;;;;;;;;4944892;28;20249;-74
2023/08/11 04:38:17;;;;;;;9.75;6.90;;;;;;;;;;4944187;28;20198;-74
2023/08/11 04:41:02;;;;;;;10.43;7.35;;;;;;;;;;4962429;28;20217;-75
2023/08/11 04:43:47;;;;;;;9.27;7.10;;;;;;;;;;4963450;28;20186;-73
2023/08/11 04:46:32;;;;;;;7.53;6.77;;;;;;;;;;4947431;28;20190;-74
2023/08/11 04:49:16;;;;;;;10.20;6.77;;;;;;;;;;4947671;28;20224;-74
2023/08/11 04:52:01;;;;;;;8.80;6.80;;;;;;;;;;4967850;28;20217;-75
2023/08/11 04:54:46;;;;;;;10.07;7.30;;;;;;;;;;4942802;28;20198;-74
2023/08/11 04:57:30;;;;;;;7.87;6.47;;;;;;;;;;4939947;28;20198;-73
2023/08/11 05:00:16;;;;;;;11.50;6.73;;;;;;;;;;4959604;28;20269;-74
2023/08/11 05:03:01;;;;;;;9.43;6.77;;;;;;;;;;4961466;28;20194;-73
2023/08/11 05:05:46;;;;;;;9.87;6.87;;;;;;;;;;4943190;28;20234;-74
2023/08/11 05:08:31;;;;;;;8.13;6.57;;;;;;;;;;4946974;28;20198;-75
2023/08/11 05:11:15;;;;;;;9.27;6.57;;;;;;;;;;4945809;28;20197;-73
2023/08/11 05:14:00;;;;;;;9.40;7.23;;;;;;;;;;4969918;28;20194;-75
2023/08/11 05:16:45;;;;;;;7.40;6.67;;;;;;;;;;4962757;28;20238;-74
2023/08/11 05:19:31;;;;;;;10.17;7.37;;;;;;;;;;4949722;28;20257;-73
2023/08/11 05:22:15;;;;;;;7.60;6.87;;;;;;;;;;4964988;28;20217;-74
2023/08/11 05:25:00;;;;;;;9.07;7.17;;;;;;;;;;4958653;28;20273;-75
2023/08/11 05:27:45;;;;;;;8.87;6.80;;;;;;;;;;4947775;28;20238;-75
2023/08/11 05:30:29;;;;;;;8.07;6.80;;;;;;;;;;4948104;28;20301;-75
2023/08/11 05:33:14;;;;;;;7.67;6.93;;;;;;;;;;4948516;28;20186;-74
2023/08/11 05:35:59;;;;;;;12.37;7.17;;;;;;;;;;4962567;28;20229;-75
2023/08/11 05:38:43;;;;;;;9.57;7.30;;;;;;;;;;4950142;28;20186;-75
2023/08/11 05:41:28;;;;;;;10.93;7.27;;;;;;;;;;4939400;28;20245;-75
2023/08/11 05:44:13;;;;;;;10.57;7.13;;;;;;;;;;4959188;28;20195;-75
2023/08/11 05:46:59;;;;;;;9.17;6.60;;;;;;;;;;4940442;28;20250;-75
2023/08/11 05:49:44;;;;;;;9.43;6.17;;;;;;;;;;4949866;28;20281;-74
2023/08/11 05:52:30;;;;;;;7.60;6.40;;;;;;;;;;4946758;28;20190;-74
2023/08/11 05:55:16;;;;;;;9.50;7.00;;;;;;;;;;4963401;28;20281;-74
2023/08/11 05:58:00;;;;;;;9.15;7.35;;;;;;;;;;4950855;28;20391;-73
2023/08/11 06:00:45;;;;;;;9.60;6.60;;;;;;;;;;4944205;28;20217;-74
2023/08/11 06:03:30;;;;;;;11.13;6.50;;;;;;;;;;4946631;28;20190;-75
2023/08/11 06:06:15;;;;;;;9.27;5.70;;;;;;;;;;4967371;28;20564;-74
2023/08/11 06:08:59;;;;;;;9.45;5.70;;;;;;;;;;4951650;28;20194;-75
2023/08/11 06:11:45;;;;;;;12.93;6.03;;;;;;;;;;4949241;28;20270;-74
2023/08/11 06:14:29;;;;;;;10.05;6.13;;;;;;;;;;4963275;28;20271;-74
2023/08/11 06:17:14;;;;;;;9.63;5.90;;;;;;;;;;4949113;28;20240;-75
2023/08/11 06:19:58;;;;;;;9.70;5.77;;;;;;;;;;4957267;28;20313;-74
2023/08/11 06:22:56;;;;;;;26.53;9.53;;;;;;;;;;5109715;27;21130;-76
2023/08/11 06:25:41;;;;;;;17.77;9.20;;;;;;;;;;5079961;28;20180;-75
2023/08/11 06:28:26;;;;;;;20.88;8.38;;;;;;;;;;5083209;28;20193;-75
2023/08/11 06:31:11;;;;;;;18.40;8.05;;;;;;;;;;5091493;28;20232;-76
2023/08/11 06:33:55;;;;;;;12.48;7.10;;;;;;;;;;5077795;28;20208;-76
2023/08/11 06:36:40;;;;;;;12.10;6.18;;;;;;;;;;5077567;28;20814;-76
2023/08/11 06:39:25;;;;;;;7.75;5.80;;;;;;;;;;5074007;28;20263;-76
2023/08/11 06:42:09;;;;;;;8.90;5.88;;;;;;;;;;5077991;28;20279;-75
2023/08/11 06:44:54;;;;;;;20.77;8.73;;;;;;;;;;5071927;28;20199;-76
2023/08/11 06:47:39;;;;;;;9.15;5.28;;;;;;;;;;5075272;28;20290;-78
2023/08/11 06:50:23;;;;;;;11.30;5.93;;;;;;;;;;5058434;28;20214;-77
2023/08/11 06:53:09;;;;;;;13.55;6.07;;;;;;;;;;5084018;28;20660;-77
2023/08/11 06:55:54;;;;;;;7.55;5.20;;;;;;;;;;5076638;28;20189;-77
2023/08/11 06:58:38;;;;;;;31.58;11.02;;;;;;;;;;5078459;28;20298;-77
2023/08/11 07:01:25;;;;;;;15.43;6.10;;;;;;;;;;5072094;28;20201;-77
2023/08/11 07:04:09;;;;;;;10.80;5.28;;;;;;;;;;5069626;28;20238;-81
2023/08/11 07:06:55;;;;;;;11.77;5.70;;;;;;;;;;5067817;28;20173;-78
2023/08/11 07:09:39;;;;;;;14.07;6.10;;;;;;;;;;5070991;28;20244;-78
2023/08/11 07:12:24;;;;;;;12.50;5.65;;;;;;;;;;5073299;28;20213;-77
2023/08/11 07:15:09;;;;;;;6.50;3.97;;;;;;;;;;5071290;28;20330;-76
2023/08/11 07:17:54;;;;;;;5.55;4.18;;;;;;;;;;5079608;28;20200;-76
2023/08/11 07:20:42;;;;;;;6.35;3.97;;;;;;;;;;5076137;28;20299;-75
2023/08/11 07:23:27;;;;;;;10.13;4.00;;;;;;;;;;5074796;28;20680;-76
2023/08/11 07:26:11;;;;;;;5.30;4.10;;;;;;;;;;5071403;28;20182;-76
2023/08/11 07:28:56;;;;;;;8.93;4.22;;;;;;;;;;5074937;28;20235;-76
2023/08/11 07:31:41;;;;;;;6.15;3.60;;;;;;;;;;5067238;28;20197;-76
2023/08/11 07:34:25;;;;;;;7.22;4.10;;;;;;;;;;5077431;28;20205;-75
2023/08/11 07:37:10;;;;;;;16.33;7.30;;;;;;;;;;5061020;28;20201;-76
2023/08/11 07:39:56;;;;;;;17.90;7.15;;;;;;;;;;5070986;28;20294;-76
2023/08/11 07:42:41;;;;;;;22.67;8.82;;;;;;;;;;5076149;28;20217;-75
2023/08/11 07:45:27;;;;;;;15.13;7.28;;;;;;;;;;5066037;28;20186;-76
2023/08/11 07:48:13;;;;;;;7.18;4.22;;;;;;;;;;5058310;28;20249;-77
2023/08/11 07:50:59;;;;;;;9.75;3.13;;;;;;;;;;5053674;28;20224;-76
2023/08/11 07:53:44;;;;;;;11.57;6.57;;;;;;;;;;5067512;28;20199;-76
2023/08/11 07:56:28;;;;;;;9.30;5.10;;;;;;;;;;5058978;28;20190;-76
2023/08/11 07:59:13;;;;;;;11.20;3.17;;;;;;;;;;5071057;28;20254;-76
2023/08/11 08:01:59;;;;;;;12.20;6.05;;;;;;;;;;5068092;28;20214;-76
2023/08/11 08:04:44;;;;;;;4.75;2.85;;;;;;;;;;5059618;28;20229;-75
2023/08/11 08:07:28;;;;;;;3.50;2.28;;;;;;;;;;5065408;28;20193;-76
2023/08/11 08:10:14;;;;;;;2.88;2.05;;;;;;;;;;5062777;28;20209;-77
2023/08/11 08:12:59;;;;;;;11.35;7.40;;;;;;;;;;5055539;28;20190;-77
2023/08/11 08:15:43;;;;;;;17.55;8.95;;;;;;;;;;5059388;28;20240;-77
2023/08/11 08:18:28;;;;;;;5.25;2.55;;;;;;;;;;5061556;28;20669;-76
2023/08/11 08:21:13;;;;;;;6.15;2.17;;;;;;;;;;5055326;28;20755;-76
2023/08/11 08:23:58;;;;;;;3.33;2.00;;;;;;;;;;5058739;28;20220;-76
2023/08/11 08:26:47;;;;;;;5.53;1.60;;;;;;;;;;5075258;28;20190;-76
2023/08/11 08:29:34;;;;;;;9.00;3.70;;;;;;;;;;5051158;28;20210;-76
2023/08/11 08:32:20;;;;;;;14.20;7.68;;;;;;;;;;5055644;28;20196;-76
2023/08/11 08:35:06;;;;;;;3.25;2.22;;;;;;;;;;5064431;28;20190;-76
2023/08/11 08:37:52;;;;;;;2.17;1.40;;;;;;;;;;5071331;28;20239;-76
2023/08/11 08:40:38;;;;;;;4.70;2.28;;;;;;;;;;5058528;28;20217;-75
2023/08/11 08:43:23;;;;;;;2.70;1.48;;;;;;;;;;5060979;28;20208;-75
2023/08/11 08:46:09;;;;;;;1.90;0.95;;;;;;;;;;5069541;28;20661;-76
2023/08/11 08:49:05;;;;;;;2.15;1.10;;;;;;;;;;5066648;28;20181;-76
2023/08/11 08:51:50;;;;;;;0.80;0.73;;;;;;;;;;5075083;28;20189;-77
2023/08/11 08:54:36;;;;;;;1.25;0.98;;;;;;;;;;5062366;28;20194;-76
2023/08/11 08:57:22;;;;;;;6.70;3.97;;;;;;;;;;5058754;28;20205;-76
2023/08/11 09:00:07;;;;;;;4.80;2.25;;;;;;;;;;5074953;28;20216;-76
2023/08/11 09:02:53;;;;;;;2.25;1.00;;;;;;;;;;5070389;28;20704;-76
2023/08/11 09:05:39;;;;;;;1.08;0.82;;;;;;;;;;5067645;28;20180;-75
2023/08/11 09:08:25;;;;;;;1.15;1.02;;;;;;;;;;5076693;28;20325;-76
2023/08/11 09:11:10;;;;;;;1.23;0.93;;;;;;;;;;5053571;28;20204;-77
2023/08/11 09:14:02;;;;;;;1.05;0.93;;;;;;;;;;5071218;28;20194;-76
2023/08/11 09:16:48;;;;;;;0.80;0.80;;;;;;;;;;5070849;28;20189;-76
2023/08/11 09:19:34;;;;;;;4.03;1.13;;;;;;;;;;5052149;28;20344;-76
2023/08/11 09:22:25;;;;;;;1.05;0.90;;;;;;;;;;5062833;28;20222;-77
2023/08/11 09:25:12;;;;;;;3.42;1.00;;;;;;;;;;5055515;28;20192;-76
2023/08/11 09:27:58;;;;;;;7.10;3.40;;;;;;;;;;5074068;28;20213;-76
2023/08/11 09:30:43;;;;;;;9.32;5.63;;;;;;;;;;5078653;28;20213;-76
2023/08/11 09:33:30;;;;;;;6.90;5.38;;;;;;;;;;5073887;28;20194;-76
2023/08/11 09:36:17;;;;;;;13.60;9.63;;;;;;;;;;5062387;28;20235;-76
2023/08/11 09:39:06;;;;;;;8.82;5.72;;;;;;;;;;5075382;28;20224;-75
2023/08/11 09:41:50;;;;;;;7.88;3.88;;;;;;;;;;5061431;28;20210;-75
2023/08/11 09:44:35;;;;;;;4.82;2.83;;;;;;;;;;5063721;28;20229;-76
2023/08/11 09:47:19;;;;;;;2.10;1.38;;;;;;;;;;5069122;28;20197;-76
2023/08/11 09:50:04;;;;;;;2.15;1.10;;;;;;;;;;5058958;28;20213;-76
2023/08/11 09:52:49;;;;;;;6.78;2.80;;;;;;;;;;5058998;28;20194;-77
2023/08/11 09:55:36;;;;;;;6.60;3.10;;;;;;;;;;5053031;28;20251;-76
2023/08/11 09:58:24;;;;;;;2.03;1.30;;;;;;;;;;5051737;28;20186;-77
2023/08/11 10:01:09;;;;;;;9.65;4.93;;;;;;;;;;5053774;28;20289;-77
2023/08/11 10:03:56;;;;;;;3.90;2.10;;;;;;;;;;5069383;28;20189;-76
2023/08/11 10:06:43;;;;;;;3.63;1.38;;;;;;;;;;5058825;28;20208;-75
2023/08/11 10:09:29;;;;;;;3.15;1.20;;;;;;;;;;5081869;28;20204;-76
2023/08/11 10:12:14;;;;;;;1.17;1.08;;;;;;;;;;5054220;28;20341;-76
2023/08/11 10:14:59;;;;;;;1.80;1.20;;;;;;;;;;5070135;28;20191;-77
2023/08/11 10:17:44;;;;;;;2.90;1.27;;;;;;;;;;5056006;28;20266;-75
2023/08/11 10:20:30;;;;;;;1.20;1.10;;;;;;;;;;5060547;28;20267;-77
2023/08/11 10:23:14;;;;;;;1.85;1.13;;;;;;;;;;5046125;28;20241;-77
2023/08/11 10:25:59;;;;;;;4.38;1.17;;;;;;;;;;5079834;28;20190;-78
2023/08/11 10:28:44;;;;;;;2.83;1.25;;;;;;;;;;5064953;28;20183;-76
2023/08/11 10:31:31;;;;;;;4.50;1.50;;;;;;;;;;5074195;28;20189;-77
2023/08/11 10:34:20;;;;;;;2.70;1.60;;;;;;;;;;5056514;28;20267;-78
2023/08/11 10:37:07;;;;;;;2.22;1.20;;;;;;;;;;5051854;28;20179;-76
2023/08/11 10:40:04;;;;;;;4.40;1.20;;;;;;;;;;5068746;28;20224;-77
2023/08/11 10:42:51;;;;;;;1.45;1.00;;;;;;;;;;5053894;28;20308;-77
2023/08/11 10:45:39;;;;;;;3.17;1.35;;;;;;;;;;5056423;28;20328;-76
2023/08/11 10:48:23;;;;;;;2.33;1.00;;;;;;;;;;5056333;28;20236;-76
2023/08/11 10:51:22;;;;;;;1.30;1.20;;;;;;;;;;5053908;28;20213;-77
2023/08/11 10:54:09;;;;;;;4.22;1.30;;;;;;;;;;5053508;28;20260;-78
2023/08/11 10:56:54;;;;;;;2.83;1.13;;;;;;;;;;5060458;28;20193;-76
2023/08/11 10:59:38;;;;;;;2.97;1.63;;;;;;;;;;5061179;28;20213;-77
2023/08/11 11:02:23;;;;;;;3.22;1.60;;;;;;;;;;5050276;28;20206;-78
2023/08/11 11:05:08;;;;;;;3.78;1.45;;;;;;;;;;5069720;28;20305;-78
2023/08/11 11:07:53;;;;;;;2.35;1.70;;;;;;;;;;5055143;28;20391;-78
2023/08/11 11:10:38;;;;;;;3.42;1.60;;;;;;;;;;5053991;28;20282;-78
2023/08/11 11:13:23;;;;;;;2.88;1.63;;;;;;;;;;5058165;28;20186;-79
2023/08/11 11:16:07;;;;;;;4.97;2.17;;;;;;;;;;5064910;28;20184;-77
2023/08/11 11:18:52;;;;;;;4.05;1.65;;;;;;;;;;5064856;28;20186;-77
2023/08/11 11:21:40;;;;;;;2.47;1.60;;;;;;;;;;5065051;28;20218;-77
2023/08/11 11:24:25;;;;;;;3.97;2.00;;;;;;;;;;5064777;28;20186;-77
2023/08/11 11:27:10;;;;;;;3.47;1.92;;;;;;;;;;5059577;28;20398;-77
2023/08/11 11:29:59;;;;;;;5.03;1.80;;;;;;;;;;5057985;28;20565;-79
2023/08/11 11:32:43;;;;;;;4.47;2.10;;;;;;;;;;5076893;28;20190;-77
2023/08/11 11:35:28;;;;;;;2.08;1.88;;;;;;;;;;5059141;28;20814;-78
2023/08/11 11:38:13;;;;;;;2.35;1.95;;;;;;;;;;5062261;28;20302;-77
2023/08/11 11:40:58;;;;;;;3.10;1.77;;;;;;;;;;5064370;28;20225;-78
2023/08/11 11:43:45;;;;;;;2.45;1.95;;;;;;;;;;5065809;28;20182;-79
2023/08/11 11:46:32;;;;;;;3.42;1.80;;;;;;;;;;5067326;28;20187;-77
2023/08/11 11:49:17;;;;;;;2.28;1.85;;;;;;;;;;5058602;28;20205;-79
2023/08/11 11:52:03;;;;;;;4.78;2.13;;;;;;;;;;5061509;28;20394;-79
2023/08/11 11:54:51;;;;;;;5.63;2.10;;;;;;;;;;5054758;28;20244;-78
2023/08/11 11:57:37;;;;;;;4.72;2.10;;;;;;;;;;5063354;28;20677;-78
2023/08/11 12:00:25;;;;;;;4.35;2.17;;;;;;;;;;5064412;28;20604;-78
2023/08/11 12:03:10;;;;;;;3.88;1.55;;;;;;;;;;5057885;28;20284;-77
2023/08/11 12:05:54;;;;;;;3.50;1.88;;;;;;;;;;5051105;28;20186;-79
2023/08/11 12:08:42;;;;;;;4.60;2.80;;;;;;;;;;5061329;28;20213;-77
2023/08/11 12:11:30;;;;;;;5.07;2.08;;;;;;;;;;5054906;28;20237;-78
2023/08/11 12:14:15;;;;;;;5.78;2.67;;;;;;;;;;5068447;28;20182;-78
2023/08/11 12:16:59;;;;;;;3.60;2.35;;;;;;;;;;5056093;28;20202;-77
2023/08/11 12:19:47;;;;;;;5.45;2.17;;;;;;;;;;5059112;28;20206;-77
2023/08/11 12:22:31;;;;;;;2.80;1.88;;;;;;;;;;5059324;28;20276;-78
2023/08/11 12:25:16;;;;;;;2.83;1.83;;;;;;;;;;5067400;28;20173;-77
2023/08/11 12:28:02;;;;;;;3.35;1.65;;;;;;;;;;5061025;28;20197;-79
2023/08/11 12:30:47;;;;;;;4.03;1.63;;;;;;;;;;5065997;28;20262;-78
2023/08/11 12:33:32;;;;;;;2.03;1.77;;;26.10;99.90;;;;;;5053228;28;20217;-77
2023/08/11 12:36:16;;;;;;;3.70;1.67;;;26.10;99.90;;;;;;5059438;28;20186;-77
2023/08/11 12:39:01;;;;;;;1.80;1.70;;;26.10;99.90;;;;;;5058638;28;20237;-78
2023/08/11 12:41:45;;;;;;;3.28;1.67;;;26.10;99.90;;;;;;5068153;28;20597;-78
2023/08/11 12:44:28;;;;;;;3.35;1.70;;;26.00;99.90;;;;;;5064459;28;20189;-77
2023/08/11 12:47:13;;;;;;;3.50;1.60;;;26.10;99.90;;;;;;5066860;28;20202;-77
2023/08/11 12:49:58;;;;;;;7.97;1.67;;;26.20;99.90;;;;;;5067956;28;20280;-77
2023/08/11 12:52:42;;;;;;;3.10;1.52;;;26.20;99.90;;;;;;5086265;28;20236;-77
2023/08/11 12:55:26;;;;;;;2.22;1.70;;;26.30;99.90;;;;;;5060512;28;20221;-78
2023/08/11 12:58:10;;;;;;;2.33;1.50;;;26.30;99.90;;;;;;5061417;28;20244;-77
2023/08/11 13:00:55;;;;;;;4.80;1.70;;;26.40;99.90;;;;;;5088078;28;20217;-77
2023/08/11 13:03:39;;;;;;;2.25;1.70;;;26.40;99.90;;;;;;5058243;28;20202;-78
2023/08/11 13:06:23;;;;;;;3.42;1.80;;;26.40;99.90;;;;;;5074090;28;20256;-76
2023/08/11 13:09:07;;;;;;;5.28;1.88;;;26.40;99.90;;;;;;5059889;28;20194;-78
2023/08/11 13:11:51;;;;;;;3.58;1.52;;;26.40;99.90;;;;;;5063445;28;20236;-78
2023/08/11 13:14:35;;;;;;;4.03;1.80;;;26.40;99.90;;;;;;5059875;28;20564;-78
2023/08/11 13:17:20;;;;;;;3.17;1.83;;;26.50;99.90;;;;;;5064554;28;20190;-77
2023/08/11 13:20:09;;;;;;;3.72;1.75;;;26.50;99.90;;;;;;5056637;28;20221;-76
2023/08/11 13:22:53;;;;;;;6.57;2.08;;;26.50;99.90;;;;;;5070597;28;20208;-78
2023/08/11 13:25:37;;;;;;;7.00;1.90;;;26.60;99.90;;;;;;5053403;28;20229;-78
2023/08/11 13:28:22;;;;;;;2.42;2.00;;;26.70;99.90;;;;;;5062240;28;20793;-77
2023/08/11 13:31:06;;;;;;;2.95;1.98;;;26.70;99.90;;;;;;5057109;28;20216;-79
2023/08/11 13:33:50;;;;;;;4.10;2.20;;;26.70;99.90;;;;;;5058399;28;20201;-78
2023/08/11 13:36:34;;;;;;;3.22;1.80;;;26.70;99.90;;;;;;5061045;28;20313;-78
2023/08/11 13:39:18;;;;;;;3.88;1.83;;;26.70;99.90;;;;;;5068770;28;20212;-77
2023/08/11 13:42:02;;;;;;;1.83;1.73;;;26.80;99.90;;;;;;5051095;28;20190;-76
2023/08/11 13:44:47;;;;;;;3.13;2.00;;;26.80;99.90;;;;;;5063083;28;20207;-77
2023/08/11 13:47:31;;;;;;;4.47;2.10;;;26.90;99.90;;;;;;5061268;28;20188;-78
2023/08/11 13:50:15;;;;;;;2.80;1.92;;;27.00;99.90;;;;;;5055156;28;20216;-77
2023/08/11 13:53:02;;;;;;;4.13;2.22;;;;;;;;;;5061587;28;20580;-79
2023/08/11 13:55:49;;;;;;;2.42;1.75;;;;;;;;;;5063892;28;20181;-79
2023/08/11 13:58:34;;;;;;;2.70;2.00;;;;;;;;;;5068357;28;20186;-78
2023/08/11 14:01:18;;;;;;;2.50;2.13;;;;;;;;;;5053891;28;20209;-79
2023/08/11 14:04:03;;;;;;;5.53;2.17;;;27.20;99.90;;;;;;5072284;28;20198;-78
2023/08/11 14:06:46;;;;;;;4.35;1.95;;;27.20;99.90;;;;;;5057657;28;20198;-76
2023/08/11 14:09:30;;;;;;;3.08;2.00;;;27.10;99.90;;;;;;5060701;28;20224;-78
2023/08/11 14:12:14;;;;;;;2.95;1.42;;;27.10;99.90;;;;;;5063453;28;20297;-77
2023/08/11 14:15:00;;;;;;;3.13;2.10;;;27.10;99.90;;;;;;5062691;28;20252;-75
2023/08/11 14:17:44;;;;;;;2.53;1.98;;;27.20;99.90;;;;;;5055426;28;20273;-75
2023/08/11 14:20:28;;;;;;;6.75;2.03;;;27.20;99.90;;;;;;5057598;28;20355;-76
2023/08/11 14:23:12;;;;;;;2.95;1.90;;;27.20;99.90;;;;;;5058602;28;20220;-76
2023/08/11 14:25:56;;;;;;;6.22;1.90;;;27.10;99.90;;;;;;5069594;28;20715;-76
2023/08/11 14:28:40;;;;;;;3.08;1.80;;;27.10;99.90;;;;;;5056291;28;20722;-76
2023/08/11 14:31:24;;;;;;;3.80;2.00;;;27.20;99.90;;;;;;5053848;28;20186;-77
2023/08/11 14:34:09;;;;;;;3.53;2.00;;;27.20;99.90;;;;;;5055543;28;20263;-76
2023/08/11 14:36:53;;;;;;;3.17;1.75;;;27.30;99.90;;;;;;5055043;28;20201;-76
2023/08/11 14:39:37;;;;;;;2.92;1.70;;;27.20;99.90;;;;;;5055652;28;20213;-76
2023/08/11 14:42:21;;;;;;;3.03;1.90;;;27.30;99.90;;;;;;5055846;28;20568;-77
2023/08/11 14:45:06;;;;;;;1.85;1.73;;;27.30;99.90;;;;;;5061384;28;20270;-76
2023/08/11 14:47:50;;;;;;;3.92;1.65;;;27.30;99.90;;;;;;5059407;28;20282;-75
2023/08/11 14:50:34;;;;;;;4.32;1.70;;;27.30;99.90;;;;;;5048384;28;20210;-75
2023/08/11 14:53:21;;;;;;;4.47;2.05;;;27.30;99.90;;;;;;5059687;28;20263;-75
2023/08/11 14:56:05;;;;;;;2.15;1.77;;;27.40;99.90;;;;;;5058686;28;20194;-78
2023/08/11 14:58:49;;;;;;;4.20;1.70;;;27.30;99.90;;;;;;5066991;28;20197;-75
2023/08/11 15:01:33;;;;;;;1.70;1.60;;;27.30;99.90;;;;;;5061443;28;20194;-76
2023/08/11 15:04:17;;;;;;;3.60;1.73;;;27.40;99.90;;;;;;5068661;28;20277;-77
2023/08/11 15:07:01;;;;;;;3.45;1.63;;;27.40;99.90;;;;;;5064093;28;20195;-76
2023/08/11 15:09:45;;;;;;;3.35;1.50;;;27.50;99.90;;;;;;5056361;28;20264;-76
2023/08/11 15:12:29;;;;;;;2.10;1.70;;;27.50;99.90;;;;;;5059347;28;20281;-75
2023/08/11 15:15:13;;;;;;;2.47;1.67;;;27.60;99.90;;;;;;5072973;28;20189;-76
2023/08/11 15:17:58;;;;;;;4.78;1.80;;;27.50;99.90;;;;;;5074828;28;20229;-76
2023/08/11 15:20:42;;;;;;;5.70;1.85;;;27.50;99.90;;;;;;5057709;28;20427;-76
2023/08/11 15:23:27;;;;;;;2.17;1.80;;;27.50;99.90;;;;;;5067346;28;20275;-75
2023/08/11 15:26:12;;;;;;;2.05;1.50;;;27.50;99.90;;;;;;5061328;28;20201;-75
2023/08/11 15:28:56;;;;;;;2.40;2.03;;;27.50;99.90;;;;;;5056395;28;20273;-76
2023/08/11 15:31:41;;;;;;;2.65;1.77;;;27.50;99.90;;;;;;5076791;28;20246;-76
2023/08/11 15:34:25;;;;;;;3.15;2.03;;;27.50;99.90;;;;;;5057525;28;20186;-75
2023/08/11 15:37:10;;;;;;;2.08;1.85;;;27.50;99.90;;;;;;5072704;28;20243;-78
2023/08/11 15:39:55;;;;;;;2.88;1.95;;;27.50;99.90;;;;;;5071893;28;20309;-75
2023/08/11 15:42:39;;;;;;;3.10;1.83;;;27.50;99.90;;;;;;5059027;28;20186;-75
2023/08/11 15:45:23;;;;;;;10.15;2.28;;;27.60;99.90;;;;;;5060410;28;20308;-75
2023/08/11 15:48:07;;;;;;;3.28;1.70;;;27.60;99.90;;;;;;5065646;28;20569;-75
2023/08/11 15:50:51;;;;;;;2.65;1.75;;;27.60;99.90;;;;;;5053529;28;20643;-76
2023/08/11 15:53:35;;;;;;;5.57;1.77;;;27.60;99.90;;;;;;5060426;28;20252;-75